Seajoy — 9HGN7 — position and weather

sailwx.info

Track history (hours):
 
Tides and Currents Weather Stations Pressure Air Temp Water Temp Dewpoint Dewpoint Depression Visibility Wind Speed Wind Dir Waves Ship Positions

Seajoy

Last reported at 2017-Dec-14 03:51 UTC. Time now 2017-Dec-17 21:54 UTC.
Position N 09°38' W 079°45'.

Length 225 m; draft 11.7 m.

Type: Ship. MMSI: 215208000.

Date/timePositionNaut miles runAvg speedWind from/ knotsBaromVisibWave heightAir tempDewpointWater temp
2017-Dec-14 03:51N 09°38' W 079°45'513.6
2017-Dec-14 03:30N 09°35' W 079°48'613.0
2017-Dec-14 03:00N 09°30' W 079°52'611.1
2017-Dec-14 02:30N 09°25' W 079°55'2 5.0
2017-Dec-14 02:00N 09°23' W 079°56'0 0.6
2017-Dec-14 01:28N 09°22' W 079°56'0 0.0
2017-Dec-14 00:58N 09°22' W 079°56'0 0.1
2017-Dec-14 00:28N 09°22' W 079°56'0 0.1
2017-Dec-13 23:58N 09°22' W 079°56'0 0.1
2017-Dec-13 23:28N 09°22' W 079°56'0 0.0
2017-Dec-13 22:58N 09°22' W 079°56'0 0.0
2017-Dec-13 22:28N 09°22' W 079°56'0 0.0
2017-Dec-13 21:58N 09°22' W 079°56'0 0.0
2017-Dec-13 21:31N 09°22' W 079°56'0 0.0
2017-Dec-13 21:01N 09°22' W 079°56'0 0.0
2017-Dec-13 20:30N 09°22' W 079°56'0 0.0
2017-Dec-13 20:00N 09°22' W 079°56'0 0.0
2017-Dec-13 19:30N 09°22' W 079°56'0 0.0
2017-Dec-13 19:00N 09°22' W 079°56'1 1.9
2017-Dec-13 18:30N 09°21' W 079°55'2 3.7
2017-Dec-13 18:00N 09°20' W 079°55'3 5.8
2017-Dec-13 17:30N 09°17' W 079°55'0 0.3
2017-Dec-13 17:00N 09°17' W 079°55'0 0.4
2017-Dec-13 16:30N 09°16' W 079°55'0 0.4
2017-Dec-13 16:00N 09°16' W 079°55'0 0.9
2017-Dec-13 15:30N 09°16' W 079°55'3 5.2
2017-Dec-13 15:00N 09°13' W 079°55'  
Track history (hours):
 
Tides and Currents Weather Stations Pressure Air Temp Water Temp Dewpoint Dewpoint Depression Visibility Wind Speed Wind Dir Waves Ship Positions

Seajoy

Last reported at 2017-Dec-14 03:51 UTC. Time now 2017-Dec-17 21:54 UTC.
Position N 09°38' W 079°45'.

Length 225 m; draft 11.7 m.

Type: Ship. MMSI: 215208000.

Date/timePositionNaut miles runAvg speedWind from/ knotsBaromVisibWave heightAir tempDewpointWater temp
2017-Dec-14 03:51N 09°38' W 079°45'513.6
2017-Dec-14 03:30N 09°35' W 079°48'613.0
2017-Dec-14 03:00N 09°30' W 079°52'611.1
2017-Dec-14 02:30N 09°25' W 079°55'2 5.0
2017-Dec-14 02:00N 09°23' W 079°56'0 0.6
2017-Dec-14 01:28N 09°22' W 079°56'0 0.0
2017-Dec-14 00:58N 09°22' W 079°56'0 0.1
2017-Dec-14 00:28N 09°22' W 079°56'0 0.1
2017-Dec-13 23:58N 09°22' W 079°56'0 0.1
2017-Dec-13 23:28N 09°22' W 079°56'0 0.0
2017-Dec-13 22:58N 09°22' W 079°56'0 0.0
2017-Dec-13 22:28N 09°22' W 079°56'0 0.0
2017-Dec-13 21:58N 09°22' W 079°56'0 0.0
2017-Dec-13 21:31N 09°22' W 079°56'0 0.0
2017-Dec-13 21:01N 09°22' W 079°56'0 0.0
2017-Dec-13 20:30N 09°22' W 079°56'0 0.0
2017-Dec-13 20:00N 09°22' W 079°56'0 0.0
2017-Dec-13 19:30N 09°22' W 079°56'0 0.0
2017-Dec-13 19:00N 09°22' W 079°56'1 1.9
2017-Dec-13 18:30N 09°21' W 079°55'2 3.7
2017-Dec-13 18:00N 09°20' W 079°55'3 5.8
2017-Dec-13 17:30N 09°17' W 079°55'0 0.3
2017-Dec-13 17:00N 09°17' W 079°55'0 0.4
2017-Dec-13 16:30N 09°16' W 079°55'0 0.4
2017-Dec-13 16:00N 09°16' W 079°55'0 0.9
2017-Dec-13 15:30N 09°16' W 079°55'3 5.2
2017-Dec-13 15:00N 09°13' W 079°55'  

Dump ship's entire track history